Terminal Aerodrome Forecast
Issued by NWS Detroit/Pontiac, MI

Home | Current Version | Previous Version | Text Only | Print | Product List | Glossary On
Versions: 1 2 3 4 5 6 7 8 9 10 11 12 13 14 15 16 17 18 19 20 21 22 23 24 25 26 27
000
FTUS43 KDTX 201121
TAFDTW
TAF
KDTW 201121Z 2012/2118 07005KT P6SM BKN200
     FM201600 12009KT P6SM BKN200
     FM210800 10012KT P6SM OVC150
     FM211300 18008KT 6SM -RA BR SCT028 OVC040
     FM211600 20008KT 3SM -RA BR BKN015 OVC028=

USA.gov is the U.S. government's official web portal to all federal, state and local government web resources and services.